Time;durP1;ratioP1;P1;durP2;ratioP2;P2;SDS_P1;SDS_P2;PMS_P1;PMS_P2;Temp;Humidity;BMP_temperature;BMP_pressure;BME280_temperature;BME280_humidity;BME280_pressure;Samples;Min_cycle;Max_cycle;Signal;HPM_P1;HPM_P2
2023/03/11 00:02:11;;;;;;;5.87;1.13;;;-0.30;99.90;;;;;;5057603;28;20093;-27
2023/03/11 00:04:37;;;;;;;6.00;0.53;;;-0.30;99.90;;;;;;5075474;28;20131;-27
2023/03/11 00:07:07;;;;;;;7.50;1.17;;;-0.20;99.90;;;;;;5075964;28;20055;-28
2023/03/11 00:09:33;;;;;;;4.03;0.53;;;0.40;99.90;;;;;;5075080;28;20048;-28
2023/03/11 00:12:00;;;;;;;4.77;0.67;;;-0.40;99.90;;;;;;5075025;28;20051;-28
2023/03/11 00:14:26;;;;;;;6.80;0.97;;;-0.30;99.90;;;;;;5074904;28;20059;-30
2023/03/11 00:16:52;;;;;;;3.03;0.40;;;-0.30;99.90;;;;;;5074967;28;20041;-29
2023/03/11 00:19:18;;;;;;;5.93;0.63;;;-0.30;99.90;;;;;;5057905;28;20371;-30
2023/03/11 00:21:43;;;;;;;5.00;0.80;;;-0.30;99.90;;;;;;5073578;28;20153;-31
2023/03/11 00:24:09;;;;;;;7.80;0.60;;;-0.30;99.90;;;;;;5056486;28;20048;-30
2023/03/11 00:26:36;;;;;;;3.47;0.40;;;-0.20;99.90;;;;;;5074052;28;20048;-31
2023/03/11 00:29:01;;;;;;;3.60;0.60;;;0.30;99.90;;;;;;5074762;28;20475;-31
2023/03/11 00:31:27;;;;;;;3.03;0.37;;;-0.30;99.90;;;;;;5075502;28;20101;-31
2023/03/11 00:33:56;;;;;;;5.17;0.77;;;-0.20;99.90;;;;;;5073452;28;20048;-31
2023/03/11 00:36:32;;;;;;;5.67;0.50;;;-0.20;99.90;;;;;;5074486;28;20127;-31
2023/03/11 00:39:00;;;;;;;2.77;0.40;;;-0.30;99.90;;;;;;5074126;28;20049;-32
2023/03/11 00:41:27;;;;;;;10.50;1.00;;;-0.30;99.90;;;;;;5074280;28;20060;-32
2023/03/11 00:43:53;;;;;;;3.10;1.17;;;-0.30;99.90;;;;;;5074265;28;20055;-33
2023/03/11 00:46:19;;;;;;;2.97;0.50;;;-0.30;99.90;;;;;;5074668;28;20036;-34
2023/03/11 00:48:45;;;;;;;3.47;0.90;;;-0.30;99.90;;;;;;5074301;28;20189;-33
2023/03/11 00:51:14;;;;;;;2.23;0.33;;;-0.30;99.90;;;;;;5074267;28;20131;-34
2023/03/11 00:53:40;;;;;;;9.93;0.60;;;-0.30;99.90;;;;;;5074479;28;20056;-34
2023/03/11 00:56:08;;;;;;;5.50;0.60;;;-0.40;99.90;;;;;;5074655;28;20082;-36
2023/03/11 00:58:34;;;;;;;6.20;0.53;;;-0.40;99.90;;;;;;5074183;28;20052;-34
2023/03/11 01:01:06;;;;;;;3.20;0.50;;;-0.40;99.90;;;;;;5073434;28;20040;-36
2023/03/11 01:03:32;;;;;;;3.40;0.20;;;-0.30;99.90;;;;;;5074085;28;20142;-38
2023/03/11 01:05:57;;;;;;;4.83;0.37;;;-0.30;99.90;;;;;;5074077;28;20082;-38
2023/03/11 01:08:23;;;;;;;4.60;0.67;;;-0.20;99.90;;;;;;5073621;28;20513;-38
2023/03/11 01:10:49;;;;;;;1.07;0.30;;;-0.20;99.90;;;;;;5073954;28;20051;-35
2023/03/11 01:13:15;;;;;;;4.13;0.40;;;-0.20;99.90;;;;;;5074768;28;20067;-39
2023/03/11 01:15:40;;;;;;;5.63;0.57;;;-0.10;99.90;;;;;;5073858;28;20422;-36
2023/03/11 01:18:06;;;;;;;3.53;0.40;;;-0.10;99.90;;;;;;5072976;28;20059;-38
2023/03/11 01:20:32;;;;;;;5.87;0.50;;;-0.20;99.90;;;;;;5073872;28;20465;-39
2023/03/11 01:22:58;;;;;;;5.30;0.57;;;-0.10;99.90;;;;;;5074052;28;20139;-36
2023/03/11 01:25:24;;;;;;;5.80;0.70;;;-0.20;99.90;;;;;;5074330;28;20132;-39
2023/03/11 01:27:50;;;;;;;6.93;0.63;;;-0.10;99.90;;;;;;5073767;28;20056;-35
2023/03/11 01:30:20;;;;;;;4.63;0.57;;;-0.10;99.90;;;;;;5074573;28;20477;-37
2023/03/11 01:32:46;;;;;;;5.07;0.57;;;-0.20;99.90;;;;;;5072794;28;20079;-34
2023/03/11 01:35:14;;;;;;;3.27;0.30;;;-0.20;99.90;;;;;;5071932;28;20044;-34
2023/03/11 01:37:40;;;;;;;5.50;0.80;;;-0.20;99.90;;;;;;5073408;28;20119;-34
2023/03/11 01:40:12;;;;;;;2.40;0.40;;;-0.20;99.90;;;;;;5073643;28;20087;-33
2023/03/11 01:42:37;;;;;;;2.47;0.47;;;-0.20;99.90;;;;;;5073678;28;20044;-35
2023/03/11 01:45:26;;;;;;;1.63;0.23;;;0.10;99.90;;;;;;5055703;28;20097;-33
2023/03/11 01:47:52;;;;;;;4.60;0.47;;;-0.30;99.90;;;;;;5072688;28;20051;-35
2023/03/11 01:50:18;;;;;;;10.13;0.70;;;-0.30;99.90;;;;;;5072887;28;20045;-33
2023/03/11 01:52:44;;;;;;;6.10;0.43;;;-0.40;99.90;;;;;;5073816;28;20048;-33
2023/03/11 01:55:12;;;;;;;4.43;0.67;;;-0.40;99.90;;;;;;5073441;28;20067;-32
2023/03/11 01:57:40;;;;;;;5.53;0.30;;;-0.50;99.90;;;;;;5073495;28;20044;-32
2023/03/11 02:00:10;;;;;;;3.47;0.30;;;-0.50;99.90;;;;;;5072481;28;20048;-31
2023/03/11 02:02:41;;;;;;;6.27;0.40;;;-0.50;99.90;;;;;;5073388;28;20479;-30
2023/03/11 02:05:08;;;;;;;4.00;0.57;;;-0.50;99.90;;;;;;5074268;28;20037;-31
2023/03/11 02:07:34;;;;;;;3.87;0.30;;;-0.50;99.90;;;;;;5073287;28;20049;-30
2023/03/11 02:10:01;;;;;;;2.97;0.53;;;-0.50;99.90;;;;;;5073646;28;20048;-29
2023/03/11 02:12:29;;;;;;;3.03;0.30;;;-0.60;99.90;;;;;;5073349;28;20056;-28
2023/03/11 02:14:55;;;;;;;3.77;0.33;;;-0.60;99.90;;;;;;5073209;28;20483;-29
2023/03/11 02:17:21;;;;;;;3.97;0.30;;;-0.70;99.90;;;;;;5072104;28;20052;-28
2023/03/11 02:20:05;;;;;;;3.40;0.97;;;-0.80;99.90;;;;;;5073532;28;20387;-28
2023/03/11 02:22:32;;;;;;;1.70;0.50;;;-1.00;99.90;;;;;;5073622;28;20139;-27
2023/03/11 02:25:27;;;;;;;2.57;0.20;;;-1.00;99.90;;;;;;5073238;28;20040;-27
2023/03/11 02:27:55;;;;;;;1.93;0.10;;;-1.10;99.90;;;;;;5073813;28;20053;-26
2023/03/11 02:30:24;;;;;;;1.67;0.20;;;-1.20;99.90;;;;;;5073172;28;20044;-26
2023/03/11 02:32:50;;;;;;;6.17;0.50;;;-1.20;99.90;;;;;;5073127;28;20067;-26
2023/03/11 02:35:17;;;;;;;4.47;0.30;;;-1.30;99.90;;;;;;5073005;28;20479;-25
2023/03/11 02:37:51;;;;;;;6.43;0.40;;;-1.30;99.90;;;;;;5073101;28;20048;-25
2023/03/11 02:40:23;;;;;;;3.87;0.30;;;-1.20;99.90;;;;;;5072788;28;20041;-25
2023/03/11 02:42:53;;;;;;;3.60;0.50;;;-1.20;99.90;;;;;;5073009;28;20049;-24
2023/03/11 02:45:21;;;;;;;3.43;0.40;;;-1.20;99.90;;;;;;5073006;28;20041;-24
2023/03/11 02:47:48;;;;;;;3.63;0.67;;;-1.20;99.90;;;;;;5075743;28;20048;-24
2023/03/11 02:50:17;;;;;;;5.83;0.50;;;-1.30;99.90;;;;;;5076602;28;20044;-24
2023/03/11 02:52:43;;;;;;;2.13;0.63;;;-1.40;99.90;;;;;;5059241;28;20091;-23
2023/03/11 02:55:10;;;;;;;4.20;0.30;;;-1.50;99.90;;;;;;5075724;28;20044;-23
2023/03/11 02:57:37;;;;;;;1.83;0.23;;;-1.70;99.90;;;;;;5075320;28;20044;-23
2023/03/11 03:00:13;;;;;;;3.30;0.23;;;-1.70;99.90;;;;;;5076447;28;20040;-22
2023/03/11 03:02:39;;;;;;;4.57;0.37;;;-1.80;99.90;;;;;;5076747;28;20056;-22
2023/03/11 03:05:06;;;;;;;2.07;0.33;;;-1.80;99.90;;;;;;5075634;28;20405;-22
2023/03/11 03:07:32;;;;;;;7.50;0.47;;;-1.80;99.90;;;;;;5076229;28;20044;-22
2023/03/11 03:09:57;;;;;;;5.43;1.83;;;-1.90;99.90;;;;;;5076263;28;20044;-22
2023/03/11 03:12:23;;;;;;;2.70;0.20;;;-2.10;99.90;;;;;;5076796;28;20067;-22
2023/03/11 03:14:49;;;;;;;5.93;0.63;;;-2.20;99.90;;;;;;5075798;28;20040;-21
2023/03/11 03:17:15;;;;;;;5.10;0.43;;;-2.30;99.90;;;;;;5076145;28;20131;-21
2023/03/11 03:19:41;;;;;;;5.80;0.57;;;-2.30;99.90;;;;;;5074835;28;20052;-21
2023/03/11 03:22:07;;;;;;;1.13;0.20;;;-2.30;99.90;;;;;;5076207;28;20052;-21
2023/03/11 03:24:32;;;;;;;7.07;0.83;;;-2.30;99.90;;;;;;5075710;28;20589;-21
2023/03/11 03:26:58;;;;;;;5.17;0.63;;;-2.40;99.90;;;;;;5075936;28;20123;-21
2023/03/11 03:29:24;;;;;;;3.27;0.40;;;-2.50;99.90;;;;;;5075556;28;20135;-21
2023/03/11 03:31:50;;;;;;;2.60;0.20;;;-2.40;99.90;;;;;;5075596;28;20057;-21
2023/03/11 03:34:16;;;;;;;8.37;0.60;;;-2.40;99.90;;;;;;5076682;28;20040;-21
2023/03/11 03:36:41;;;;;;;4.67;0.30;;;-2.40;99.90;;;;;;5074246;28;20500;-21
2023/03/11 03:39:07;;;;;;;3.03;0.37;;;-2.50;99.90;;;;;;5075738;28;20041;-21
2023/03/11 03:41:33;;;;;;;11.73;1.03;;;-2.60;99.90;;;;;;5075131;28;20044;-21
2023/03/11 03:43:59;;;;;;;5.63;0.73;;;-2.60;99.90;;;;;;5074370;28;20120;-21
2023/03/11 03:46:25;;;;;;;3.50;0.20;;;-2.60;99.90;;;;;;5075899;28;20033;-21
2023/03/11 03:48:51;;;;;;;6.63;0.60;;;-2.50;99.90;;;;;;5075589;28;20041;-22
2023/03/11 03:51:17;;;;;;;4.73;0.47;;;-2.50;99.90;;;;;;5074923;28;20048;-21
2023/03/11 03:53:45;;;;;;;4.33;0.43;;;-2.50;99.90;;;;;;5075446;28;20057;-21
2023/03/11 03:56:15;;;;;;;3.60;0.50;;;-2.50;99.90;;;;;;5075309;28;20084;-21
2023/03/11 03:58:41;;;;;;;4.80;0.40;;;-2.50;99.90;;;;;;5074364;28;20374;-21
2023/03/11 04:01:08;;;;;;;9.43;1.40;;;-2.50;99.90;;;;;;5074132;28;20127;-21
2023/03/11 04:03:35;;;;;;;4.93;0.40;;;-2.40;99.90;;;;;;5074999;28;20505;-21
2023/03/11 04:06:17;;;;;;;9.67;1.03;;;-2.40;99.90;;;;;;5075217;28;20102;-21
2023/03/11 04:08:44;;;;;;;4.50;0.73;;;-2.50;99.90;;;;;;5075715;28;20048;-21
2023/03/11 04:11:10;;;;;;;3.70;0.40;;;-2.50;99.90;;;;;;5073917;28;20333;-21
2023/03/11 04:13:36;;;;;;;5.93;1.13;;;-2.60;99.90;;;;;;5075007;28;20048;-21
2023/03/11 04:16:04;;;;;;;3.40;0.20;;;-2.80;99.90;;;;;;5074949;28;20098;-21
2023/03/11 04:18:29;;;;;;;4.83;0.43;;;-2.90;99.90;;;;;;5057526;28;20091;-21
2023/03/11 04:20:55;;;;;;;5.30;0.47;;;-2.80;99.90;;;;;;5074875;28;20048;-21
2023/03/11 04:23:21;;;;;;;14.77;2.00;;;-2.80;99.90;;;;;;5073997;28;20048;-20
2023/03/11 04:25:48;;;;;;;3.60;0.43;;;-2.80;99.90;;;;;;5074802;28;20048;-21
2023/03/11 04:28:14;;;;;;;2.07;0.30;;;-3.00;99.90;;;;;;5074760;28;20135;-20
2023/03/11 04:30:40;;;;;;;4.53;0.50;;;-3.20;99.90;;;;;;5073517;28;20043;-21
2023/03/11 04:33:05;;;;;;;3.13;0.47;;;-3.40;99.90;;;;;;5074631;28;20474;-20
2023/03/11 04:35:32;;;;;;;12.00;1.33;;;-3.60;99.90;;;;;;5074513;28;20087;-20
2023/03/11 04:38:00;;;;;;;3.63;0.30;;;-3.80;99.90;;;;;;5074576;28;20055;-20
2023/03/11 04:40:27;;;;;;;6.43;1.23;;;-4.10;99.90;;;;;;5073309;28;20049;-20
2023/03/11 04:42:53;;;;;;;28.07;1.80;;;-4.30;99.90;;;;;;5074502;28;20056;-20
2023/03/11 04:45:19;;;;;;;5.17;0.47;;;-4.40;99.90;;;;;;5074400;28;20043;-20
2023/03/11 04:47:51;;;;;;;1.80;0.80;;;-4.40;99.90;;;;;;5074635;28;20132;-20
2023/03/11 04:50:17;;;;;;;7.77;0.50;;;-4.50;99.90;;;;;;5073109;28;20040;-20
2023/03/11 04:52:45;;;;;;;5.30;0.60;;;-4.60;99.90;;;;;;5073295;28;20382;-20
2023/03/11 04:55:12;;;;;;;2.93;0.50;;;-4.60;99.90;;;;;;5074418;28;20051;-20
2023/03/11 04:57:39;;;;;;;5.53;0.50;;;-4.70;99.90;;;;;;5073857;28;20399;-20
2023/03/11 05:00:10;;;;;;;8.10;0.93;;;-4.70;99.90;;;;;;5074703;28;20036;-20
2023/03/11 05:02:38;;;;;;;6.03;0.40;;;-4.70;99.90;;;;;;5056554;28;20045;-20
2023/03/11 05:05:04;;;;;;;1.70;0.53;;;-4.70;99.90;;;;;;5074621;28;20120;-20
2023/03/11 05:07:30;;;;;;;5.40;0.47;;;-4.70;99.90;;;;;;5074198;28;20040;-20
2023/03/11 05:09:56;;;;;;;14.20;1.83;;;-4.70;99.90;;;;;;5073924;28;20105;-20
2023/03/11 05:12:23;;;;;;;5.33;0.90;;;-4.70;99.90;;;;;;5074045;28;20510;-20
2023/03/11 05:14:49;;;;;;;12.73;1.47;;;-4.70;99.90;;;;;;5055975;28;20487;-20
2023/03/11 05:17:17;;;;;;;4.97;0.83;;;-4.60;99.90;;;;;;5072748;28;20109;-20
2023/03/11 05:19:43;;;;;;;3.43;0.67;;;-4.60;99.90;;;;;;5074405;28;20040;-20
2023/03/11 05:22:09;;;;;;;4.97;0.93;;;-4.60;99.90;;;;;;5073430;28;20075;-20
2023/03/11 05:24:35;;;;;;;6.03;0.80;;;-4.70;99.90;;;;;;5074047;28;20052;-20
2023/03/11 05:27:03;;;;;;;3.87;1.20;;;-4.80;99.90;;;;;;5074359;28;20119;-20
2023/03/11 05:29:28;;;;;;;11.70;1.23;;;-4.80;99.90;;;;;;5072857;28;20044;-20
2023/03/11 05:31:56;;;;;;;7.00;0.80;;;-4.80;99.90;;;;;;5073708;28;20508;-20
2023/03/11 05:34:22;;;;;;;5.43;0.63;;;-4.90;99.90;;;;;;5039689;28;20071;-20
2023/03/11 05:36:48;;;;;;;2.43;0.80;;;-4.90;99.90;;;;;;5072419;28;20470;-20
2023/03/11 05:39:13;;;;;;;2.13;0.63;;;-4.90;99.90;;;;;;5073679;28;20475;-20
2023/03/11 05:41:40;;;;;;;5.20;0.77;;;-4.90;99.90;;;;;;5073626;28;20049;-20
2023/03/11 05:44:05;;;;;;;6.37;1.20;;;-4.80;99.90;;;;;;5073636;28;20127;-20
2023/03/11 05:46:31;;;;;;;2.23;0.70;;;-4.80;99.90;;;;;;5073562;28;20084;-20
2023/03/11 05:48:59;;;;;;;2.70;0.60;;;-4.80;99.90;;;;;;5073532;28;20041;-20
2023/03/11 05:51:26;;;;;;;1.60;0.53;;;-4.90;99.90;;;;;;5072941;28;20040;-20
2023/03/11 05:53:51;;;;;;;5.73;0.50;;;-4.90;99.90;;;;;;5056050;28;20383;-20
2023/03/11 05:56:19;;;;;;;3.17;0.53;;;-4.90;99.90;;;;;;5072791;28;20045;-20
2023/03/11 05:58:45;;;;;;;3.77;1.13;;;-4.90;99.90;;;;;;5073445;28;20052;-20
2023/03/11 06:01:14;;;;;;;4.73;0.70;;;-4.90;99.90;;;;;;5072283;28;20375;-20
2023/03/11 06:03:40;;;;;;;3.40;0.43;;;-5.00;99.90;;;;;;5073432;28;20055;-20
2023/03/11 06:06:08;;;;;;;3.70;0.50;;;-5.00;99.90;;;;;;5073929;28;20051;-20
2023/03/11 06:08:36;;;;;;;5.77;1.40;;;-5.00;99.90;;;;;;5073738;28;20052;-20
2023/03/11 06:11:06;;;;;;;11.07;3.07;;;-5.00;99.90;;;;;;5073342;28;20505;-20
2023/03/11 06:13:32;;;;;;;5.30;0.70;;;-5.10;99.90;;;;;;5073413;28;20056;-20
2023/03/11 06:15:58;;;;;;;4.87;0.73;;;-5.10;99.90;;;;;;5074031;28;20033;-20
2023/03/11 06:18:27;;;;;;;7.17;1.10;;;-5.10;99.90;;;;;;5072978;28;20395;-20
2023/03/11 06:20:56;;;;;;;3.20;1.63;;;-5.10;99.90;;;;;;5073260;28;20136;-20
2023/03/11 06:23:23;;;;;;;7.47;0.80;;;-5.10;99.90;;;;;;5076475;28;20060;-20
2023/03/11 06:26:03;;;;;;;2.17;0.80;;;-5.10;99.90;;;;;;5076148;28;20397;-20
2023/03/11 06:28:30;;;;;;;4.10;1.20;;;-5.10;99.90;;;;;;5077923;28;20044;-20
2023/03/11 06:31:05;;;;;;;2.67;0.70;;;-5.10;99.90;;;;;;5078066;28;20067;-20
2023/03/11 06:33:30;;;;;;;5.60;0.80;;;-5.00;99.90;;;;;;5077023;28;20059;-20
2023/03/11 06:36:01;;;;;;;6.53;0.80;;;-5.00;99.90;;;;;;5075550;28;20049;-20
2023/03/11 06:38:27;;;;;;;5.50;0.53;;;-4.90;99.90;;;;;;5077411;28;20128;-20
2023/03/11 06:40:53;;;;;;;9.27;1.07;;;-4.90;99.90;;;;;;5075619;28;20131;-20
2023/03/11 06:43:21;;;;;;;5.17;1.10;;;-4.80;99.90;;;;;;5075552;28;20049;-20
2023/03/11 06:45:47;;;;;;;10.03;1.27;;;-4.80;99.90;;;;;;5076731;28;20048;-20
2023/03/11 06:48:13;;;;;;;7.73;1.53;;;-4.80;99.90;;;;;;5075389;28;20036;-20
2023/03/11 06:50:38;;;;;;;9.17;1.10;;;-4.80;99.90;;;;;;5076287;28;20055;-20
2023/03/11 06:53:07;;;;;;;6.63;1.00;;;-4.70;99.90;;;;;;5076845;28;20049;-20
2023/03/11 06:55:33;;;;;;;4.13;0.67;;;-4.60;99.90;;;;;;5076446;28;20048;-20
2023/03/11 06:58:00;;;;;;;4.63;1.07;;;-4.50;99.90;;;;;;5058574;28;20087;-21
2023/03/11 07:00:26;;;;;;;4.80;0.60;;;-4.50;99.90;;;;;;5077006;28;20108;-20
2023/03/11 07:02:52;;;;;;;3.17;0.83;;;-4.40;99.90;;;;;;5076081;28;20398;-20
2023/03/11 07:05:18;;;;;;;11.23;1.07;;;-4.20;99.90;;;;;;5075742;28;20044;-20
2023/03/11 07:07:44;;;;;;;5.33;0.87;;;-4.10;99.90;;;;;;5075497;28;20052;-20
2023/03/11 07:10:10;;;;;;;8.73;0.90;;;-4.00;99.90;;;;;;5075083;28;20080;-20
2023/03/11 07:12:36;;;;;;;4.63;1.93;;;-3.80;99.90;;;;;;5075132;28;20067;-20
2023/03/11 07:15:02;;;;;;;10.30;2.47;;;-3.70;99.90;;;;;;5041663;28;20478;-20
2023/03/11 07:17:28;;;;;;;4.17;0.60;;;-3.50;99.90;;;;;;5075328;28;20041;-20
2023/03/11 07:19:54;;;;;;;5.20;0.77;;;-3.30;99.90;;;;;;5075000;28;20067;-20
2023/03/11 07:22:20;;;;;;;4.27;0.50;;;-3.10;99.90;;;;;;5075868;28;20063;-20
2023/03/11 07:24:47;;;;;;;6.13;0.63;;;-3.00;99.90;;;;;;5075861;28;20483;-20
2023/03/11 07:27:13;;;;;;;2.20;0.70;;;-2.90;99.90;;;;;;5075974;28;20044;-20
2023/03/11 07:29:39;;;;;;;3.27;0.83;;;-2.80;99.90;;;;;;5075937;28;20095;-21
2023/03/11 07:32:08;;;;;;;7.90;1.00;;;-2.70;99.90;;;;;;5058252;28;20049;-20
2023/03/11 07:34:34;;;;;;;3.07;1.37;;;-2.60;99.90;;;;;;5073412;28;20053;-20
2023/03/11 07:37:00;;;;;;;7.10;1.03;;;-2.50;99.90;;;;;;5075714;28;20044;-21
2023/03/11 07:39:26;;;;;;;5.80;1.00;;;-2.40;99.90;;;;;;5075590;28;20051;-20
2023/03/11 07:41:52;;;;;;;5.87;0.80;;;-2.20;99.90;;;;;;5075007;28;20047;-20
2023/03/11 07:44:18;;;;;;;6.43;1.43;;;-2.00;99.90;;;;;;5075628;28;20045;-21
2023/03/11 07:46:44;;;;;;;4.17;1.00;;;-1.90;99.90;;;;;;5076439;28;20123;-20
2023/03/11 07:49:10;;;;;;;5.03;1.33;;;-1.80;99.90;;;;;;5075550;28;20041;-20
2023/03/11 07:51:39;;;;;;;10.20;1.17;;;-1.70;99.90;;;;;;5075518;28;20055;-20
2023/03/11 07:54:05;;;;;;;5.30;1.03;;;-1.60;99.90;;;;;;5074450;28;20439;-20
2023/03/11 07:56:33;;;;;;;6.93;0.93;;;-1.50;99.90;;;;;;5074187;28;20036;-21
2023/03/11 07:59:00;;;;;;;5.47;0.90;;;-1.30;99.90;;;;;;5075422;28;20040;-21
2023/03/11 08:01:34;;;;;;;3.83;0.73;;;-1.10;99.90;;;;;;5075849;28;20041;-20
2023/03/11 08:04:01;;;;;;;6.03;0.80;;;-1.00;99.90;;;;;;5076168;28;20053;-21
2023/03/11 08:06:30;;;;;;;6.33;1.20;;;-0.80;99.90;;;;;;5075185;28;20040;-21
2023/03/11 08:08:57;;;;;;;4.83;1.27;;;-0.70;99.90;;;;;;5074797;28;20482;-21
2023/03/11 08:11:23;;;;;;;9.37;1.60;;;-0.60;99.90;;;;;;5075918;28;20051;-21
2023/03/11 08:13:49;;;;;;;6.93;1.10;;;-0.40;99.90;;;;;;5075065;28;20044;-21
2023/03/11 08:16:18;;;;;;;6.03;1.13;;;-0.30;99.90;;;;;;5074954;28;20044;-21
2023/03/11 08:18:46;;;;;;;4.17;1.10;;;-0.10;99.90;;;;;;5075529;28;20087;-21
2023/03/11 08:21:17;;;;;;;7.70;1.50;;;-0.10;99.90;;;;;;5073958;28;20106;-21
2023/03/11 08:23:46;;;;;;;4.47;0.83;;;-0.10;99.90;;;;;;5056586;28;20585;-21
2023/03/11 08:26:14;;;;;;;8.27;1.17;;;0.00;99.90;;;;;;5074764;28;20044;-21
2023/03/11 08:28:40;;;;;;;7.40;1.30;;;0.00;99.90;;;;;;5074788;28;20046;-22
2023/03/11 08:31:17;;;;;;;3.23;0.90;;;0.10;99.90;;;;;;5074747;28;20471;-21
2023/03/11 08:33:46;;;;;;;2.63;0.50;;;0.20;99.90;;;;;;5074682;28;20081;-22
2023/03/11 08:36:12;;;;;;;5.97;0.83;;;0.20;99.90;;;;;;5074802;28;20041;-22
2023/03/11 08:38:38;;;;;;;6.70;1.30;;;0.20;99.90;;;;;;5074536;28;20048;-22
2023/03/11 08:41:04;;;;;;;6.93;0.93;;;0.30;99.90;;;;;;5074795;28;20044;-22
2023/03/11 08:43:30;;;;;;;6.43;0.83;;;0.30;99.90;;;;;;5073529;28;20055;-22
2023/03/11 08:45:55;;;;;;;6.47;2.27;;;0.40;99.90;;;;;;5074065;28;20428;-23
2023/03/11 08:48:24;;;;;;;5.23;0.90;;;0.40;99.90;;;;;;5073437;28;20044;-23
2023/03/11 08:50:50;;;;;;;5.43;0.80;;;0.50;99.90;;;;;;5073381;28;20056;-24
2023/03/11 08:53:16;;;;;;;5.37;1.40;;;0.50;99.90;;;;;;5074263;28;20179;-24
2023/03/11 08:55:42;;;;;;;3.07;0.83;;;0.60;99.90;;;;;;5074999;28;20044;-26
2023/03/11 08:58:07;;;;;;;6.20;1.20;;;0.70;99.90;;;;;;5074215;28;20474;-26
2023/03/11 09:00:33;;;;;;;6.07;1.23;;;0.70;99.90;;;;;;5074147;28;20120;-28
2023/03/11 09:02:59;;;;;;;4.13;1.30;;;0.80;99.90;;;;;;5074113;28;20051;-30
2023/03/11 09:05:25;;;;;;;6.13;1.10;;;0.80;99.90;;;;;;5074132;28;20048;-37
2023/03/11 09:07:51;;;;;;;4.60;0.80;;;0.80;99.90;;;;;;5072809;28;20084;-43
2023/03/11 09:10:17;;;;;;;10.43;1.93;;;0.90;99.90;;;;;;5072887;28;20398;-38
2023/03/11 09:12:42;;;;;;;3.97;1.30;;;1.00;99.90;;;;;;5072494;28;20049;-31
2023/03/11 09:15:08;;;;;;;6.97;1.87;;;1.10;99.90;;;;;;5073871;28;20123;-29
2023/03/11 09:17:34;;;;;;;7.47;1.13;;;1.20;99.90;;;;;;5073883;28;20048;-28
2023/03/11 09:20:01;;;;;;;5.20;1.00;;;1.20;99.90;;;;;;5074437;28;20051;-27
2023/03/11 09:22:27;;;;;;;7.53;1.30;;;1.30;99.90;;;;;;5072317;28;20060;-27
2023/03/11 09:24:53;;;;;;;5.47;1.33;;;1.40;99.90;;;;;;5073841;28;20098;-26
2023/03/11 09:27:18;;;;;;;6.05;1.02;;;1.60;99.90;;;;;;5074084;28;20437;-27
2023/03/11 09:29:44;;;;;;;6.05;0.93;;;2.10;99.90;;;;;;5074353;28;20493;-26
2023/03/11 09:32:12;;;;;;;7.47;1.40;;;2.70;99.90;;;;;;5074022;28;20076;-27
2023/03/11 09:34:38;;;;;;;6.25;1.10;;;3.30;99.90;;;;;;5073398;28;20491;-27
2023/03/11 09:37:04;;;;;;;4.20;1.05;;;3.80;99.90;;;;;;5074168;28;20044;-30
2023/03/11 09:39:29;;;;;;;3.60;0.80;;;4.10;99.90;;;;;;5073644;28;20045;-29
2023/03/11 09:42:00;;;;;;;4.25;0.65;;;4.40;99.90;;;;;;5073634;28;20036;-29
2023/03/11 09:45:10;;;;;;;4.90;1.25;;;4.50;99.90;;;;;;5073738;28;20055;-30
2023/03/11 09:47:41;;;;;;;5.10;0.80;;;4.50;99.90;;;;;;5071216;28;20050;-30
2023/03/11 09:50:11;;;;;;;7.50;1.17;;;4.70;99.90;;;;;;5073435;28;20055;-29
2023/03/11 09:52:56;;;;;;;6.80;0.73;;;4.70;99.90;;;;;;5074065;28;20516;-25
2023/03/11 09:55:38;;;;;;;6.32;1.00;;;4.70;99.90;;;;;;5072233;28;20513;-26
2023/03/11 09:58:23;;;;;;;6.07;1.20;;;5.00;99.90;;;;;;5075392;28;20044;-25
2023/03/11 10:00:51;;;;;;;8.77;0.80;;;4.80;99.90;;;;;;5078225;28;20453;-25
2023/03/11 10:03:46;;;;;;;5.90;0.85;;;4.80;99.90;;;;;;5078139;28;20044;-23
2023/03/11 10:06:31;;;;;;;4.63;0.70;;;4.40;99.90;;;;;;5071899;28;20116;-24
2023/03/11 10:09:11;;;;;;;3.47;0.80;;;4.50;99.90;;;;;;5077742;28;20048;-26
2023/03/11 10:12:01;;;;;;;8.00;1.35;;;4.30;99.90;;;;;;5076484;28;20070;-27
2023/03/11 10:14:43;;;;;;;6.35;1.10;;;4.50;99.90;;;;;;5076482;28;20055;-28
2023/03/11 10:17:30;;;;;;;5.00;0.60;;;4.60;99.90;;;;;;5077841;28;20098;-29
2023/03/11 10:20:07;;;;;;;4.18;1.20;;;4.50;99.90;;;;;;5076082;28;20050;-28
2023/03/11 10:22:54;;;;;;;6.20;1.25;;;4.70;99.90;;;;;;5077281;28;20112;-28
2023/03/11 10:25:22;;;;;;;5.93;0.63;;;4.70;99.90;;;;;;5076541;28;20044;-29
2023/03/11 10:28:12;;;;;;;8.15;1.77;;;4.70;99.90;;;;;;5076327;28;20084;-28
2023/03/11 10:30:46;;;;;;;2.70;0.73;;;4.70;99.90;;;;;;5076414;28;20141;-29
2023/03/11 10:33:26;;;;;;;2.55;0.70;;;4.80;99.90;;;;;;5077942;28;20051;-28
2023/03/11 10:35:55;;;;;;;7.70;0.60;;;4.90;99.90;;;;;;5061192;28;20636;-29
2023/03/11 10:38:34;;;;;;;8.30;0.82;;;4.90;99.90;;;;;;5076833;28;20519;-29
2023/03/11 10:41:11;;;;;;;2.67;0.98;;;5.40;99.90;;;;;;5077617;28;20403;-29
2023/03/11 10:44:09;;;;;;;3.20;0.68;;;5.90;99.90;;;;;;5076651;28;20047;-29
2023/03/11 10:46:34;;;;;;;5.32;0.65;;;5.90;99.90;;;;;;5060895;28;20078;-29
2023/03/11 10:49:00;;;;;;;5.28;0.63;;;6.00;99.90;;;;;;5058799;28;20507;-30
2023/03/11 10:51:33;;;;;;;3.70;0.85;;;6.00;99.90;;;;;;5076628;28;20051;-30
2023/03/11 10:54:01;;;;;;;6.75;1.30;;;6.20;99.90;;;;;;5076628;28;20443;-32
2023/03/11 10:56:39;;;;;;;7.25;0.85;;;5.90;99.90;;;;;;5076453;28;20040;-30
2023/03/11 10:59:44;;;;;;;9.07;0.82;;;5.60;99.90;;;;;;5076802;28;20079;-30
2023/03/11 11:02:26;;;;;;;5.65;1.05;;;5.50;99.90;;;;;;5057031;28;20059;-30
2023/03/11 11:05:07;;;;;;;2.20;0.57;;;6.00;99.90;;;;;;5076394;28;20135;-31
2023/03/11 11:07:38;;;;;;;5.13;0.57;;;5.90;99.90;;;;;;5075993;28;20095;-30
2023/03/11 11:10:23;;;;;;;4.03;0.70;;;6.10;99.90;;;;;;5076640;28;20040;-30
2023/03/11 11:12:57;;;;;;;3.05;0.68;;;6.40;99.90;;;;;;5076248;28;20502;-31
2023/03/11 11:15:40;;;;;;;3.33;0.50;;;6.50;99.90;;;;;;5076451;28;20490;-31
2023/03/11 11:18:19;;;;;;;3.10;0.55;;;6.20;99.90;;;;;;5074772;28;20387;-33
2023/03/11 11:21:03;;;;;;;4.38;1.20;;;5.90;99.90;;;;;;5076739;28;20045;-32
2023/03/11 11:23:35;;;;;;;3.80;0.82;;;6.30;99.90;;;;;;5074465;28;20053;-32
2023/03/11 11:26:13;;;;;;;5.50;0.70;;;6.80;99.90;;;;;;5059225;28;20078;-32
2023/03/11 11:28:39;;;;;;;2.15;0.50;;;6.80;99.90;;;;;;5075064;28;20401;-32
2023/03/11 11:31:18;;;;;;;3.88;0.60;;;6.20;99.90;;;;;;5058240;28;20053;-32
2023/03/11 11:33:52;;;;;;;4.95;0.70;;;6.10;99.90;;;;;;5076195;28;20045;-33
2023/03/11 11:36:23;;;;;;;5.47;0.70;;;6.10;99.90;;;;;;5075752;28;20119;-34
2023/03/11 11:38:52;;;;;;;8.75;1.48;;;6.20;99.90;;;;;;5076346;28;20048;-33
2023/03/11 11:41:21;;;;;;;3.55;0.80;;;6.20;99.90;;;;;;5075752;28;20052;-33
2023/03/11 11:43:52;;;;;;;7.70;1.13;;;6.20;99.90;;;;;;5075292;28;20099;-32
2023/03/11 11:46:23;;;;;;;3.08;0.50;;;6.30;99.90;;;;;;5075632;28;20127;-33
2023/03/11 11:48:55;;;;;;;4.55;0.43;;;6.40;99.90;;;;;;5075507;28;20511;-36
2023/03/11 11:51:30;;;;;;;5.43;0.90;;;6.50;99.90;;;;;;5076017;28;20378;-35
2023/03/11 11:54:16;;;;;;;4.55;0.55;;;6.60;99.90;;;;;;5074532;28;20055;-35
2023/03/11 11:56:42;;;;;;;6.35;0.80;;;6.50;99.90;;;;;;5075925;28;20090;-38
2023/03/11 11:59:18;;;;;;;4.38;0.38;;;6.60;99.90;;;;;;5075383;28;20044;-39
2023/03/11 12:02:15;;;;;;;3.20;0.60;;;6.50;99.90;;;;;;5074398;28;20059;-39
2023/03/11 12:04:52;;;;;;;4.65;0.63;;;6.30;99.90;;;;;;5075595;28;20059;-40
2023/03/11 12:07:40;;;;;;;4.35;0.40;;;6.20;99.90;;;;;;5076060;28;20052;-40
2023/03/11 12:10:30;;;;;;;5.97;0.43;;;6.10;99.90;;;;;;5075096;28;20058;-40
2023/03/11 12:13:49;;;;;;;3.97;0.30;;;6.40;99.90;;;;;;5075991;28;20049;-40
2023/03/11 12:16:42;;;;;;;4.30;0.40;;;6.30;99.90;;;;;;5047645;28;20055;-39
2023/03/11 12:19:11;;;;;;;2.35;0.50;;;6.10;99.90;;;;;;5074708;28;20149;-41
2023/03/11 12:21:46;;;;;;;2.90;0.38;;;6.20;99.90;;;;;;5074380;28;20055;-41
2023/03/11 12:24:30;;;;;;;3.47;0.47;;;6.30;99.90;;;;;;5074592;28;20102;-41
2023/03/11 12:27:20;;;;;;;4.03;0.55;;;6.20;99.90;;;;;;5074702;28;20140;-42
2023/03/11 12:29:51;;;;;;;6.20;0.80;;;6.40;99.90;;;;;;5075375;28;20045;-41
2023/03/11 12:32:37;;;;;;;0.90;0.30;;;6.30;99.90;;;;;;5056900;28;20102;-41
2023/03/11 12:35:18;;;;;;;2.63;0.65;;;6.00;99.90;;;;;;5073993;28;20055;-40
2023/03/11 12:37:45;;;;;;;2.53;0.47;;;5.80;99.90;;;;;;5075263;28;20449;-41
2023/03/11 12:40:46;;;;;;;4.63;0.40;;;6.00;99.90;;;;;;5074600;28;20097;-41
2023/03/11 12:43:28;;;;;;;6.25;0.60;;;6.10;99.90;;;;;;5074512;28;20132;-41
2023/03/11 12:45:59;;;;;;;2.90;0.57;;;5.90;99.90;;;;;;5074407;28;20056;-41
2023/03/11 12:48:28;;;;;;;6.30;0.57;;;5.90;99.90;;;;;;5074395;28;20279;-39
2023/03/11 12:50:55;;;;;;;4.22;0.43;;;5.90;99.90;;;;;;5074929;28;20049;-41
2023/03/11 12:53:42;;;;;;;1.70;0.32;;;6.20;99.90;;;;;;5073107;28;20101;-41
2023/03/11 12:56:29;;;;;;;2.67;0.30;;;6.50;99.90;;;;;;5074531;28;20044;-39
2023/03/11 12:59:01;;;;;;;1.95;0.52;;;6.50;99.90;;;;;;5074551;28;20126;-41
2023/03/11 13:01:42;;;;;;;3.38;0.30;;;6.70;99.90;;;;;;5073511;28;20045;-40
2023/03/11 13:04:45;;;;;;;2.85;0.43;;;6.60;99.90;;;;;;5074184;28;20044;-40
2023/03/11 13:07:57;;;;;;;1.70;0.32;;;6.90;99.90;;;;;;5074948;28;20423;-40